Time;durP1;ratioP1;P1;durP2;ratioP2;P2;SDS_P1;SDS_P2;PMS_P1;PMS_P2;Temp;Humidity;BMP_temperature;BMP_pressure;BME280_temperature;BME280_humidity;BME280_pressure;Samples;Min_cycle;Max_cycle;Signal;HPM_P1;HPM_P2
2022/10/07 00:00:52;;;;;;;;;21.25;18.50;;;;;16.82;51.75;102286.69;5092777;28;45182;-76
2022/10/07 00:03:18;;;;;;;;;24.75;21.75;;;;;16.85;51.80;102289.50;5084340;27;45098;-66
2022/10/07 00:05:44;;;;;;;;;18.50;18.50;;;;;16.88;51.66;102292.28;5071894;28;45196;-75
2022/10/07 00:08:11;;;;;;;;;26.00;19.00;;;;;16.71;51.42;102267.50;5092974;28;45305;-76
2022/10/07 00:10:40;;;;;;;;;23.25;18.50;;;;;16.87;51.98;102295.84;5093846;28;45068;-65
2022/10/07 00:13:07;;;;;;;;;26.00;24.75;;;;;16.86;52.21;102294.00;5091449;28;45170;-75
2022/10/07 00:15:33;;;;;;;;;28.25;25.25;;;;;16.82;51.50;102295.69;5090733;28;45178;-75
2022/10/07 00:17:58;;;;;;;;;23.25;18.75;;;;;16.77;51.69;102282.06;5090114;28;45162;-77
2022/10/07 00:20:23;;;;;;;;;33.00;28.50;;;;;16.83;52.13;102286.72;5084775;28;51508;-73
2022/10/07 00:22:49;;;;;;;;;23.00;18.00;;;;;16.75;51.92;102275.72;5090382;28;54272;-72
2022/10/07 00:25:14;;;;;;;;;25.00;21.50;;;;;16.66;51.82;102253.88;5089953;28;45246;-74
2022/10/07 00:27:39;;;;;;;;;23.50;19.50;;;;;16.68;51.70;102256.63;5089371;28;45160;-79
2022/10/07 00:30:05;;;;;;;;;29.25;27.25;;;;;16.75;52.49;102286.50;5091295;28;45357;-74
2022/10/07 00:32:30;;;;;;;;;37.75;33.00;;;;;16.49;52.67;102249.84;5090140;28;45511;-78
2022/10/07 00:34:56;;;;;;;;;32.25;24.00;;;;;16.51;52.78;102242.69;5090286;28;45578;-76
2022/10/07 00:37:21;;;;;;;;;26.25;21.75;;;;;16.58;52.68;102267.19;5088085;28;45099;-81
2022/10/07 00:39:46;;;;;;;;;24.00;22.50;;;;;16.66;53.04;102279.97;5089896;28;46310;-73
2022/10/07 00:42:12;;;;;;;;;33.75;28.25;;;;;16.64;53.14;102274.53;5091710;28;47891;-76
2022/10/07 00:44:43;;;;;;;;;38.00;25.75;;;;;16.65;52.70;102284.47;5093369;28;44997;-73
2022/10/07 00:47:13;;;;;;;;;27.25;25.00;;;;;16.60;52.94;102269.94;5092792;28;44994;-77
2022/10/07 00:49:49;;;;;;;;;23.50;17.75;;;;;16.49;52.55;102256.16;5092340;27;45256;-79
2022/10/07 00:52:19;;;;;;;;;25.25;17.50;;;;;16.51;53.01;102253.50;5090630;27;45110;-76
2022/10/07 00:54:44;;;;;;;;;20.25;18.25;;;;;16.61;52.68;102262.75;5093213;27;45255;-71
2022/10/07 00:57:10;;;;;;;;;13.00;12.33;;;;;16.43;52.24;102239.78;5091804;28;45151;-76
2022/10/07 00:59:38;;;;;;;;;20.00;14.75;;;;;16.42;52.72;102239.78;5091171;27;46130;-76
2022/10/07 01:02:05;;;;;;;;;16.75;15.00;;;;;16.51;52.73;102270.59;5092960;28;45012;-74
2022/10/07 01:04:31;;;;;;;;;21.50;16.50;;;;;16.51;52.75;102257.09;5091844;28;45087;-78
2022/10/07 01:06:56;;;;;;;;;15.25;15.25;;;;;16.26;53.24;102223.19;5093897;28;45217;-75
2022/10/07 01:09:22;;;;;;;;;16.50;15.00;;;;;16.42;53.56;102256.88;5089062;28;45464;-78
2022/10/07 01:11:54;;;;;;;;;20.00;13.25;;;;;16.38;53.38;102261.28;5085658;27;45256;-77
2022/10/07 01:14:46;;;;;;;;;23.25;15.25;;;;;16.27;53.95;102253.75;5089237;27;45172;-77
2022/10/07 01:17:47;;;;;;;;;20.25;19.25;;;;;16.05;54.21;102225.28;5093171;28;45241;-76
2022/10/07 01:20:34;;;;;;;;;28.75;18.00;;;;;16.00;53.77;102204.53;5076643;28;45578;-73
2022/10/07 01:23:30;;;;;;;;;22.75;19.50;;;;;16.02;54.41;102210.88;5072678;28;45069;-67
2022/10/07 01:26:13;;;;;;;;;22.75;20.00;;;;;16.21;54.03;102239.22;5092909;28;45091;-76
2022/10/07 01:28:57;;;;;;;;;26.50;24.25;;;;;16.21;54.41;102238.31;5065593;28;45171;-73
2022/10/07 01:31:36;;;;;;;;;24.00;19.00;;;;;16.22;54.03;102234.78;5091780;28;45262;-74
2022/10/07 01:34:04;;;;;;;;;24.75;19.75;;;;;15.98;54.14;102202.66;5091566;28;45322;-73
2022/10/07 01:36:32;;;;;;;;;22.50;19.25;;;;;15.98;53.99;102200.84;5094079;27;45104;-76
2022/10/07 01:39:03;;;;;;;;;22.00;17.25;;;;;16.17;53.80;102241.81;5068444;28;45732;-76
2022/10/07 01:41:31;;;;;;;;;17.00;16.00;;;;;16.11;54.20;102233.56;5095885;28;45902;-77
2022/10/07 01:43:58;;;;;;;;;20.75;15.50;;;;;16.03;54.20;102223.44;5090669;28;45108;-78
2022/10/07 01:46:25;;;;;;;;;20.50;17.00;;;;;15.90;54.90;102207.81;5095714;28;45174;-78
2022/10/07 01:48:52;;;;;;;;;19.75;19.25;;;;;15.52;55.13;102148.34;5098200;27;45125;-71
2022/10/07 01:51:22;;;;;;;;;22.00;18.00;;;;;15.68;55.06;102182.03;5090345;27;46734;-77
2022/10/07 01:53:53;;;;;;;;;20.50;18.00;;;;;15.39;55.20;102135.38;5086430;28;45187;-66
2022/10/07 01:56:50;;;;;;;;;21.00;19.25;;;;;15.84;55.15;102210.38;5089972;28;45158;-72
2022/10/07 01:59:45;;;;;;;;;18.00;17.75;;;;;15.84;54.93;102204.97;5086726;28;45259;-74
2022/10/07 02:02:35;;;;;;;;;20.50;16.00;;;;;15.83;55.06;102208.53;5089180;28;45643;-71
2022/10/07 02:05:06;;;;;;;;;21.50;17.50;;;;;15.81;55.34;102200.41;5088208;28;45198;-72
2022/10/07 02:07:50;;;;;;;;;20.50;15.75;;;;;15.79;55.26;102198.53;5091757;28;45162;-77
2022/10/07 02:10:18;;;;;;;;;17.00;15.50;;;;;15.78;55.03;102189.53;5090414;28;45201;-72
2022/10/07 02:12:53;;;;;;;;;18.25;15.25;;;;;15.56;55.27;102161.03;5089137;28;45610;-77
2022/10/07 02:15:29;;;;;;;;;22.50;17.00;;;;;15.82;55.46;102185.13;5073542;28;45031;-75
2022/10/07 02:18:01;;;;;;;;;19.00;18.00;;;;;15.71;55.60;102175.81;5089759;28;44953;-76
2022/10/07 02:20:30;;;;;;;;;17.50;11.50;;;;;15.50;55.66;102146.50;5091225;28;45144;-77
2022/10/07 02:22:58;;;;;;;;;18.50;16.25;;;;;15.27;55.52;102104.53;5088305;28;45574;-73
2022/10/07 02:25:27;;;;;;;;;18.75;16.50;;;;;15.68;55.53;102173.94;5090287;28;45037;-70
2022/10/07 02:27:54;;;;;;;;;22.00;15.33;;;;;15.43;55.59;102131.94;5084951;28;45124;-75
2022/10/07 02:30:21;;;;;;;;;23.50;15.00;;;;;15.32;55.42;102112.75;5090563;28;45188;-75
2022/10/07 02:32:58;;;;;;;;;22.50;18.00;;;;;15.58;55.57;102151.22;5089344;28;45340;-75
2022/10/07 02:35:31;;;;;;;;;19.50;16.75;;;;;15.41;55.55;102120.19;5091336;28;44970;-72
2022/10/07 02:38:01;;;;;;;;;15.00;14.00;;;;;15.59;55.40;102155.75;5090748;28;45169;-75
2022/10/07 02:40:34;;;;;;;;;15.50;13.75;;;;;15.29;55.87;102105.53;5091191;27;45132;-74
2022/10/07 02:43:23;;;;;;;;;14.25;14.00;;;;;15.10;56.08;102066.38;5087438;28;45301;-76
2022/10/07 02:45:56;;;;;;;;;16.25;16.25;;;;;15.27;55.89;102103.63;5085528;28;45242;-75
2022/10/07 02:48:29;;;;;;;;;17.25;16.00;;;;;15.40;55.85;102139.91;5089840;28;45156;-73
2022/10/07 02:50:59;;;;;;;;;19.00;16.75;;;;;15.26;55.91;102109.88;5072080;28;45224;-77
2022/10/07 02:53:27;;;;;;;;;18.00;15.25;;;;;15.45;55.94;102143.66;5086284;28;45388;-72
2022/10/07 02:55:56;;;;;;;;;14.75;11.50;;;;;15.39;56.20;102132.69;5085641;28;45280;-77
2022/10/07 02:58:25;;;;;;;;;20.00;17.75;;;;;15.36;55.94;102121.84;5088646;27;44932;-77
2022/10/07 03:00:56;;;;;;;;;16.00;11.50;;;;;15.40;56.34;102137.22;5084414;28;45143;-75
2022/10/07 03:03:23;;;;;;;;;17.75;13.25;;;;;15.44;56.28;102131.03;5086974;28;45214;-75
2022/10/07 03:05:49;;;;;;;;;14.50;13.75;;;;;15.26;55.86;102094.66;5086697;28;45911;-73
2022/10/07 03:08:14;;;;;;;;;14.25;13.50;;;;;15.45;56.01;102123.00;5087568;28;45198;-74
2022/10/07 03:10:40;;;;;;;;;18.25;15.75;;;;;15.37;55.52;102113.81;5089543;28;45185;-71
2022/10/07 03:13:05;;;;;;;;;19.00;17.25;;;;;15.45;55.78;102127.50;5089366;28;46500;-75
2022/10/07 03:15:34;;;;;;;;;14.75;14.75;;;;;15.43;55.82;102118.47;5088398;28;45292;-73
2022/10/07 03:17:59;;;;;;;;;23.75;22.00;;;;;15.14;56.10;102061.09;5087565;28;45351;-69
2022/10/07 03:20:25;;;;;;;;;47.00;37.75;;;;;15.43;56.38;102110.38;5088344;28;45224;-65
2022/10/07 03:22:50;;;;;;;;;20.50;19.50;;;;;15.06;55.68;102040.25;5089466;28;45553;-65
2022/10/07 03:25:15;;;;;;;;;22.50;19.50;;;;;15.48;55.84;102117.72;5089819;28;45206;-65
2022/10/07 03:27:41;;;;;;;;;23.50;18.25;;;;;15.25;55.49;102076.66;5089306;28;45199;-76
2022/10/07 03:30:07;;;;;;;;;24.25;20.75;;;;;15.39;55.65;102093.25;5090170;27;45167;-64
2022/10/07 03:32:33;;;;;;;;;20.75;18.00;;;;;15.46;55.86;102110.47;5085328;28;45514;-66
2022/10/07 03:34:58;;;;;;;;;27.50;16.50;;;;;15.41;55.91;102104.03;5087143;28;45119;-66
2022/10/07 03:37:23;;;;;;;;;24.75;21.25;;;;;15.40;55.83;102103.13;5089980;27;45285;-69
2022/10/07 03:39:49;;;;;;;;;19.25;18.00;;;;;15.31;55.91;102084.03;5092948;28;53150;-77
2022/10/07 03:42:15;;;;;;;;;14.75;14.50;;;;;15.39;55.89;102105.75;5072356;28;45763;-68
2022/10/07 03:44:40;;;;;;;;;24.50;15.25;;;;;15.22;56.13;102081.06;5091852;28;45137;-65
2022/10/07 03:47:07;;;;;;;;;20.00;17.00;;;;;15.16;56.29;102072.81;5095374;27;45210;-75
2022/10/07 03:49:33;;;;;;;;;14.75;14.75;;;;;15.31;56.46;102108.25;5102549;27;46019;-73
2022/10/07 03:51:59;;;;;;;;;19.50;17.75;;;;;15.29;56.49;102104.59;5104837;27;47902;-79
2022/10/07 03:54:25;;;;;;;;;23.75;17.75;;;;;15.23;56.37;102097.25;5114229;27;45027;-72
2022/10/07 03:56:50;;;;;;;;;23.25;16.00;;;;;14.95;56.24;102043.47;5113848;27;44948;-78
2022/10/07 03:59:15;;;;;;;;;20.75;17.00;;;;;15.22;56.45;102091.84;5111467;27;45324;-74
2022/10/07 04:01:41;;;;;;;;;20.75;17.00;;;;;15.24;56.29;102101.75;5112541;27;53493;-75
2022/10/07 04:04:06;;;;;;;;;25.00;18.00;;;;;15.24;56.70;102098.16;5112147;27;45237;-75
2022/10/07 04:06:32;;;;;;;;;24.00;18.75;;;;;15.18;56.77;102095.28;5113981;27;45203;-73
2022/10/07 04:08:58;;;;;;;;;20.25;16.00;;;;;15.14;57.18;102091.59;5112319;27;45223;-75
2022/10/07 04:11:24;;;;;;;;;25.25;18.00;;;;;14.99;57.09;102075.00;5111736;27;48995;-76
2022/10/07 04:13:49;;;;;;;;;21.25;18.75;;;;;15.04;57.17;102086.81;5113836;27;45311;-79
2022/10/07 04:16:15;;;;;;;;;18.75;17.00;;;;;15.00;57.27;102075.06;5110715;27;44990;-78
2022/10/07 04:18:41;;;;;;;;;23.25;17.50;;;;;15.09;57.14;102091.47;5111334;27;45334;-69
2022/10/07 04:21:06;;;;;;;;;23.00;20.50;;;;;15.05;57.29;102092.25;5110133;27;58674;-75
2022/10/07 04:23:32;;;;;;;;;26.50;19.50;;;;;14.96;57.49;102083.88;5113635;27;45058;-66
2022/10/07 04:25:57;;;;;;;;;20.50;17.25;;;;;14.96;57.56;102091.97;5108099;27;45063;-77
2022/10/07 04:28:25;;;;;;;;;21.00;17.00;;;;;14.87;57.47;102080.94;5111211;27;45318;-75
2022/10/07 04:30:52;;;;;;;;;22.75;17.00;;;;;14.92;57.77;102085.59;5113678;27;46692;-76
2022/10/07 04:33:20;;;;;;;;;19.50;16.25;;;;;14.93;57.69;102083.78;5111250;27;45220;-76
2022/10/07 04:35:47;;;;;;;;;17.00;15.00;;;;;14.90;57.23;102086.41;5110154;27;45168;-69
2022/10/07 04:38:17;;;;;;;;;17.75;16.50;;;;;14.84;57.71;102086.22;5108219;27;45304;-71
2022/10/07 04:40:45;;;;;;;;;19.75;17.50;;;;;14.81;57.46;102083.44;5113712;27;46120;-68
2022/10/07 04:43:18;;;;;;;;;17.00;16.00;;;;;14.72;57.27;102067.94;5109096;27;45111;-77
2022/10/07 04:45:52;;;;;;;;;18.50;15.75;;;;;14.72;57.50;102070.63;5106267;27;45105;-72
2022/10/07 04:48:20;;;;;;;;;15.75;13.00;;;;;14.31;57.38;101995.84;5106915;27;45339;-68
2022/10/07 04:50:46;;;;;;;;;17.00;17.00;;;;;14.52;58.03;102035.94;5112601;27;45262;-72
2022/10/07 04:53:13;;;;;;;;;17.50;13.75;;;;;14.55;57.47;102030.66;5109589;27;45218;-69
2022/10/07 04:55:42;;;;;;;;;17.50;13.75;;;;;14.47;57.53;102016.06;5105609;27;45146;-69
2022/10/07 04:58:08;;;;;;;;;17.00;13.50;;;;;14.67;57.42;102040.00;5110239;27;45195;-72
2022/10/07 05:00:34;;;;;;;;;22.25;14.50;;;;;14.80;57.67;102069.09;5110059;27;45280;-71
2022/10/07 05:03:00;;;;;;;;;12.00;11.25;;;;;14.78;57.63;102053.75;5112755;27;45141;-76
2022/10/07 05:05:26;;;;;;;;;19.50;16.25;;;;;14.79;57.58;102051.09;5110299;27;45230;-69
2022/10/07 05:07:53;;;;;;;;;17.25;14.25;;;;;14.68;57.12;102025.66;5112723;27;45182;-76
2022/10/07 05:10:19;;;;;;;;;18.00;14.00;;;;;14.36;57.63;101972.69;5108624;27;45607;-76
2022/10/07 05:12:44;;;;;;;;;17.75;16.75;;;;;14.62;57.91;102028.16;5112773;27;45165;-77
2022/10/07 05:15:10;;;;;;;;;18.25;14.00;;;;;14.64;58.20;102037.19;5110389;27;45226;-76
2022/10/07 05:17:36;;;;;;;;;20.50;17.75;;;;;14.49;57.76;102019.69;5105067;27;45527;-72
2022/10/07 05:20:03;;;;;;;;;17.50;16.00;;;;;14.52;57.81;102025.16;5111975;27;45429;-75
2022/10/07 05:22:30;;;;;;;;;19.00;16.75;;;;;14.81;57.66;102070.00;5111090;27;45202;-78
2022/10/07 05:24:55;;;;;;;;;25.75;23.50;;;;;14.87;57.63;102065.69;5110818;27;44970;-73
2022/10/07 05:27:20;;;;;;;;;23.00;16.25;;;;;14.82;57.32;102056.59;5112509;27;45048;-76
2022/10/07 05:29:46;;;;;;;;;17.50;17.00;;;;;14.56;57.84;102013.63;5112968;27;45517;-73
2022/10/07 05:32:11;;;;;;;;;18.50;13.75;;;;;14.68;57.10;102028.34;5104055;27;46999;-76
2022/10/07 05:34:37;;;;;;;;;13.33;12.67;;;;;14.68;57.76;102039.09;5111352;27;44964;-75
2022/10/07 05:37:02;;;;;;;;;17.75;16.25;;;;;14.83;57.57;102057.47;5111103;27;44950;-63
2022/10/07 05:39:27;;;;;;;;;17.75;12.50;;;;;14.84;57.83;102062.91;5102195;27;45484;-71
2022/10/07 05:41:53;;;;;;;;;20.25;14.75;;;;;14.80;57.72;102061.00;5101492;27;45392;-72
2022/10/07 05:44:18;;;;;;;;;19.00;19.00;;;;;14.77;58.05;102060.00;5107512;27;56976;-74
2022/10/07 05:46:43;;;;;;;;;21.00;17.75;;;;;14.51;57.79;102017.94;5112663;27;44970;-78
2022/10/07 05:49:09;;;;;;;;;18.75;15.25;;;;;14.66;57.87;102060.56;5106852;27;59957;-63
2022/10/07 05:51:34;;;;;;;;;20.50;16.75;;;;;14.60;58.02;102054.09;5097708;27;45273;-69
2022/10/07 05:53:59;;;;;;;;;15.33;13.00;;;;;14.43;58.47;102032.03;5093940;27;45559;-74
2022/10/07 05:56:25;;;;;;;;;17.00;17.00;;;;;13.94;58.25;101959.75;5095307;27;45426;-74
2022/10/07 05:58:51;;;;;;;;;20.50;13.75;;;;;14.51;58.40;102054.69;5092703;27;46170;-71
2022/10/07 06:01:19;;;;;;;;;18.75;14.50;;;;;14.42;58.65;102043.63;5092213;27;46005;-77
2022/10/07 06:03:53;;;;;;;;;18.50;17.25;;;;;14.49;58.65;102064.50;5092521;27;45561;-75
2022/10/07 06:06:19;;;;;;;;;14.75;13.50;;;;;14.25;59.02;102024.28;5098581;27;45542;-66
2022/10/07 06:08:46;;;;;;;;;13.25;13.25;;;;;14.22;58.54;102035.84;5094446;27;45525;-74
2022/10/07 06:14:14;;;;;;;;;16.00;13.75;;;;;14.26;58.70;102064.69;5035005;28;45453;-71
2022/10/07 06:16:39;;;;;;;;;20.00;16.75;;;;;14.27;58.72;102062.88;5075409;27;45739;-76
2022/10/07 06:19:21;;;;;;;;;22.25;18.75;;;;;13.97;58.83;102007.28;5097285;27;49204;-66
2022/10/07 06:21:46;;;;;;;;;16.75;16.00;;;;;13.88;59.45;102010.59;5094812;27;45310;-75
2022/10/07 06:24:12;;;;;;;;;23.50;19.25;;;;;14.09;59.11;102056.06;5093251;27;45583;-78
2022/10/07 06:26:37;;;;;;;;;18.25;16.00;;;;;14.10;59.07;102047.13;5093422;27;45626;-75
2022/10/07 06:29:03;;;;;;;;;25.25;14.50;;;;;14.12;59.12;102053.50;5093882;27;45494;-79
2022/10/07 06:31:28;;;;;;;;;17.25;14.50;;;;;14.01;59.94;102054.91;5093834;27;45406;-74
2022/10/07 06:33:54;;;;;;;;;23.50;15.00;;;;;14.03;59.62;102061.22;5093857;27;45495;-70
2022/10/07 06:36:19;;;;;;;;;18.25;13.75;;;;;14.04;59.71;102057.69;5093966;27;45396;-72
2022/10/07 06:38:50;;;;;;;;;13.50;12.00;;;;;14.08;59.30;102058.69;5091581;27;46111;-73
2022/10/07 06:41:16;;;;;;;;;14.25;14.25;;;;;14.11;59.74;102057.03;5092679;27;45312;-73
2022/10/07 06:43:41;;;;;;;;;17.25;14.25;;;;;14.13;59.04;102049.91;5090613;27;45491;-77
2022/10/07 06:46:11;;;;;;;;;23.75;18.50;;;;;14.11;59.44;102054.34;5093736;27;45540;-74
2022/10/07 06:48:40;;;;;;;;;18.50;17.00;;;;;14.18;59.87;102066.19;5096529;27;46392;-74
2022/10/07 06:51:05;;;;;;;;;18.50;17.00;;;;;13.71;59.63;101979.56;5093175;27;45478;-69
2022/10/07 06:53:31;;;;;;;;;19.25;15.25;;;;;13.80;58.95;101990.63;5093591;27;45506;-73
2022/10/07 06:56:01;;;;;;;;;20.50;15.25;;;;;14.16;59.02;102050.03;5093429;27;45699;-66
2022/10/07 06:58:26;;;;;;;;;22.50;13.25;;;;;14.01;59.17;102031.63;5093575;27;46339;-74
2022/10/07 07:00:52;;;;;;;;;14.00;13.00;;;;;14.03;58.98;102022.72;5093926;27;45274;-77
2022/10/07 07:03:19;;;;;;;;;25.50;15.75;;;;;14.14;59.33;102046.38;5094137;27;45297;-76
2022/10/07 07:05:45;;;;;;;;;13.75;13.75;;;;;14.19;59.23;102052.81;5094027;27;45385;-73
2022/10/07 07:08:10;;;;;;;;;12.75;12.75;;;;;14.29;58.79;102055.81;5096753;27;45572;-79
2022/10/07 07:10:41;;;;;;;;;18.00;14.75;;;;;14.26;58.65;102061.09;5093649;27;53066;-74
2022/10/07 07:13:07;;;;;;;;;14.00;13.25;;;;;14.31;58.61;102059.44;5096625;27;45606;-76
2022/10/07 07:15:34;;;;;;;;;14.00;12.75;;;;;14.36;58.34;102061.41;5097240;27;45411;-74
2022/10/07 07:17:59;;;;;;;;;17.25;13.50;;;;;14.34;58.31;102052.38;5096950;27;46225;-65
2022/10/07 07:20:25;;;;;;;;;17.00;15.00;;;;;14.22;58.53;102029.56;5097337;27;45643;-74
2022/10/07 07:22:53;;;;;;;;;14.50;13.25;;;;;14.44;58.71;102063.44;5099772;27;45522;-78
2022/10/07 07:25:19;;;;;;;;;17.50;13.00;;;;;14.32;58.40;102037.06;5096863;27;45230;-67
2022/10/07 07:27:46;;;;;;;;;14.75;13.75;;;;;14.51;58.13;102052.91;5099373;27;45439;-78
2022/10/07 07:30:12;;;;;;;;;21.00;16.25;;;;;14.34;57.90;102011.16;5095301;27;45524;-66
2022/10/07 07:32:38;;;;;;;;;17.00;16.25;;;;;14.51;58.16;102033.19;5090625;27;45469;-77
2022/10/07 07:35:04;;;;;;;;;17.75;16.75;;;;;14.47;57.90;102018.75;5096955;27;45432;-77
2022/10/07 07:37:30;;;;;;;;;17.00;16.75;;;;;14.41;57.90;101999.72;5096508;27;46286;-66
2022/10/07 07:39:56;;;;;;;;;22.75;17.75;;;;;14.73;57.76;102050.91;5096339;27;44788;-66
2022/10/07 07:42:21;;;;;;;;;12.00;10.25;;;;;14.46;57.22;101992.69;5098485;27;46118;-72
2022/10/07 07:44:47;;;;;;;;;17.00;13.75;;;;;14.82;57.12;102050.31;5097816;27;45618;-69
2022/10/07 07:47:15;;;;;;;;;23.00;17.75;;;;;14.88;57.25;102046.00;5101446;27;46285;-68
2022/10/07 07:49:40;;;;;;;;;20.75;17.75;;;;;14.68;57.44;101993.38;5097395;27;45465;-66
2022/10/07 07:52:06;;;;;;;;;22.50;18.00;;;;;15.02;57.12;102042.81;5102459;27;45527;-74
2022/10/07 07:54:32;;;;;;;;;19.50;15.25;;;;;14.77;56.70;101985.59;5101612;27;45293;-65
2022/10/07 07:56:58;;;;;;;;;20.25;17.75;;;;;13.85;56.38;101811.69;5099083;27;46406;-74
2022/10/07 07:59:24;;;;;;;;;19.25;17.50;;;;;15.21;56.22;102036.16;5097373;27;45499;-69
2022/10/07 08:01:49;;;;;;;;;29.00;21.50;;;;;15.25;56.11;102032.69;5098801;27;45497;-72
2022/10/07 08:04:15;;;;;;;;;28.00;22.50;;;;;15.29;56.04;102038.22;5097104;27;45603;-65
2022/10/07 08:06:41;;;;;;;;;26.00;21.75;;;;;15.35;55.83;102028.47;5095945;27;46248;-67
2022/10/07 08:09:06;;;;;;;;;18.25;16.00;;;;;15.09;55.80;101980.19;5095980;27;45379;-69
2022/10/07 08:11:31;;;;;;;;;16.00;14.75;;;;;15.44;55.19;102028.69;5096470;27;45444;-76
2022/10/07 08:13:58;;;;;;;;;16.25;14.75;;;;;15.30;55.12;101993.34;5096425;27;45526;-67
2022/10/07 08:16:27;;;;;;;;;16.25;12.50;;;;;15.54;54.81;102030.78;5095921;27;45570;-76
2022/10/07 08:18:54;;;;;;;;;18.25;14.25;;;;;15.35;55.25;102001.53;5095605;27;45502;-74
2022/10/07 08:21:22;;;;;;;;;16.50;14.75;;;;;15.60;54.57;102027.34;5095689;27;45352;-68
2022/10/07 08:23:52;;;;;;;;;15.67;13.00;;;;;15.53;54.35;102011.91;5095740;27;45230;-74
2022/10/07 08:26:17;;;;;;;;;15.50;12.25;;;;;15.62;53.99;102015.75;5095584;27;45418;-77
2022/10/07 08:28:43;;;;;;;;;18.00;13.67;;;;;15.78;53.53;102016.16;5094606;27;45270;-75
2022/10/07 08:31:12;;;;;;;;;13.00;12.67;;;;;15.84;53.72;102016.31;5110513;27;45518;-68
2022/10/07 08:33:39;;;;;;;;;14.33;11.33;;;;;15.89;53.75;102019.09;5095570;27;45524;-70
2022/10/07 08:36:06;;;;;;;;;18.33;12.33;;;;;15.90;52.98;102002.97;5098502;27;45621;-75
2022/10/07 08:38:34;;;;;;;;;18.67;15.00;;;;;15.73;52.92;101954.03;5095348;27;45302;-74
2022/10/07 08:41:38;;;;;;;;;14.33;11.00;;;;;16.07;52.83;101999.78;5095926;27;45288;-70
2022/10/07 08:44:17;;;;;;;;;18.00;13.67;;;;;16.13;52.31;102002.63;5094873;27;45442;-67
2022/10/07 08:46:57;;;;;;;;;10.67;10.67;;;;;16.19;51.90;102000.09;5089574;27;46664;-72
2022/10/07 08:49:38;;;;;;;;;13.00;11.67;;;;;16.00;51.61;101951.13;5093535;27;45381;-70
2022/10/07 08:52:20;;;;;;;;;8.67;8.67;;;;;16.07;51.71;101954.88;5095172;27;45550;-70
2022/10/07 08:54:45;;;;;;;;;12.00;11.67;;;;;16.41;51.63;101993.38;5095287;27;45319;-74
2022/10/07 08:57:21;;;;;;;;;13.67;10.67;;;;;16.49;51.11;101990.88;5094695;27;45368;-75
2022/10/07 08:59:56;;;;;;;;;11.33;9.00;;;;;16.39;50.49;101973.56;5094845;27;45439;-74
2022/10/07 09:02:33;;;;;;;;;13.67;11.67;;;;;16.60;50.76;101989.31;5089366;27;45325;-77
2022/10/07 09:05:14;;;;;;;;;11.33;8.00;;;;;16.69;50.59;101991.28;5095415;27;45492;-71
2022/10/07 09:07:46;;;;;;;;;11.67;9.67;;;;;16.61;50.12;101972.22;5094906;27;45514;-74
2022/10/07 09:10:35;;;;;;;;;15.67;11.00;;;;;16.78;50.07;101980.69;5094620;27;45510;-74
2022/10/07 09:13:11;;;;;;;;;14.67;12.00;;;;;16.86;49.67;101978.16;5090077;27;45616;-78
2022/10/07 09:15:36;;;;;;;;;20.00;11.67;;;;;16.94;49.20;101979.22;5095151;27;45451;-73
2022/10/07 09:18:30;;;;;;;;;15.33;11.33;;;;;16.60;50.14;101897.59;5095048;27;45748;-77
2022/10/07 09:20:57;;;;;;;;;16.00;11.33;;;;;17.02;49.42;101945.19;5087329;27;45349;-77
2022/10/07 09:23:28;;;;;;;;;11.00;9.33;;;;;17.19;49.40;101958.09;5093226;27;45573;-74
2022/10/07 09:25:53;;;;;;;;;16.33;12.67;;;;;17.30;49.26;101952.00;5095422;27;45363;-71
2022/10/07 09:28:24;;;;;;;;;9.00;6.00;;;;;17.34;49.49;101946.66;5094941;27;45439;-75
2022/10/07 09:30:50;;;;;;;;;15.67;13.33;;;;;17.29;48.40;101920.50;5095027;27;45413;-69
2022/10/07 09:33:19;;;;;;;;;19.00;17.67;;;;;17.52;48.65;101946.06;5094640;27;45432;-75
2022/10/07 09:35:52;;;;;;;;;16.00;13.33;;;;;17.36;48.54;101905.31;5094569;27;45367;-76
2022/10/07 09:38:48;;;;;;;;;11.67;11.67;;;;;17.28;48.12;101875.44;5095209;27;45934;-71
2022/10/07 09:41:19;;;;;;;;;11.67;11.67;;;;;17.78;48.01;101943.81;5090512;27;45365;-70
2022/10/07 09:44:12;;;;;;;;;17.33;15.33;;;;;17.84;47.21;101939.41;5090887;27;45451;-69
2022/10/07 09:46:53;;;;;;;;;16.00;12.67;;;;;17.89;47.54;101934.09;5095055;27;45480;-74
2022/10/07 09:49:24;;;;;;;;;13.33;11.33;;;;;17.95;47.18;101934.22;5093934;27;46606;-75
2022/10/07 09:52:04;;;;;;;;;11.00;10.33;;;;;18.03;47.14;101921.72;5099732;27;45463;-76
2022/10/07 09:54:34;;;;;;;;;8.67;8.67;;;;;18.03;46.57;101913.59;5099115;27;45334;-67
2022/10/07 09:57:03;;;;;;;;;9.00;9.00;;;;;18.03;46.45;101891.03;5099739;27;45442;-71
2022/10/07 09:59:33;;;;;;;;;11.33;9.67;;;;;18.06;46.36;101882.97;5099577;27;46578;-67
2022/10/07 10:02:00;;;;;;;;;15.67;10.33;;;;;18.34;45.68;101913.09;5098248;27;45365;-76
2022/10/07 10:04:35;;;;;;;;;11.33;9.67;;;;;18.46;45.76;101902.41;5096759;27;45358;-71
2022/10/07 10:07:15;;;;;;;;;10.00;8.33;;;;;18.69;45.02;101899.09;5098481;27;45440;-68
2022/10/07 10:09:48;;;;;;;;;10.00;8.33;;;;;18.91;44.61;101900.28;5094794;27;47182;-74
2022/10/07 10:12:14;;;;;;;;;11.33;9.00;;;;;19.01;43.65;101887.75;5088957;27;45381;-67
2022/10/07 10:14:43;;;;;;;;;10.33;8.33;;;;;19.06;43.81;101886.88;5090572;27;45694;-77
2022/10/07 10:17:30;;;;;;;;;15.00;11.00;;;;;19.01;44.30;101882.31;5094404;27;45563;-77
2022/10/07 10:20:25;;;;;;;;;8.67;6.67;;;;;19.06;43.87;101888.69;5092234;27;47203;-68
2022/10/07 10:22:51;;;;;;;;;3.00;3.00;;;;;19.04;43.08;101879.63;5094108;27;45714;-78
2022/10/07 10:28:20;;;;;;;;;3.00;3.00;;;;;18.85;41.73;101849.66;5095572;27;45618;-70
2022/10/07 10:30:57;;;;;;;;;4.00;3.00;;;;;19.05;42.28;101867.91;5093806;27;46553;-77
2022/10/07 10:33:34;;;;;;;;;4.00;4.00;;;;;19.16;41.75;101871.63;5093732;27;45389;-69
2022/10/07 10:36:20;;;;;;;;;0.67;0.67;;;;;19.01;41.19;101834.47;5087275;27;45277;-75
2022/10/07 10:39:01;;;;;;;;;1.33;1.00;;;;;18.92;41.15;101813.63;5092662;27;45348;-78
2022/10/07 10:41:42;;;;;;;;;7.00;1.67;;;;;19.22;41.51;101858.13;5092452;27;47394;-77
2022/10/07 10:44:26;;;;;;;;;3.00;1.67;;;;;19.22;41.13;101852.72;5092462;27;45554;-75
2022/10/07 10:47:30;;;;;;;;;10.00;3.33;;;;;19.23;40.88;101857.22;5087979;27;45271;-69
2022/10/07 10:50:22;;;;;;;;;2.00;2.00;;;;;19.32;41.18;101851.88;5072816;27;45512;-73
2022/10/07 10:52:56;;;;;;;;;5.00;2.67;;;;;19.33;40.95;101841.94;5069035;27;46324;-68
2022/10/07 10:55:24;;;;;;;;;8.67;4.67;;;;;19.33;40.83;101844.66;5092955;27;45454;-72
2022/10/07 10:58:04;;;;;;;;;6.00;5.00;;;;;19.17;41.11;101821.03;5094031;27;45277;-74
2022/10/07 11:00:45;;;;;;;;;6.33;6.33;;;;;19.44;40.58;101834.81;5093961;27;45348;-76
2022/10/07 11:03:32;;;;;;;;;5.00;3.00;;;;;19.39;40.52;101823.03;5092903;27;46210;-66
2022/10/07 11:06:02;;;;;;;;;5.33;4.00;;;;;19.55;40.25;101843.03;5090349;27;45688;-79
2022/10/07 11:08:32;;;;;;;;;5.00;3.67;;;;;19.56;40.35;101831.25;5093693;27;45332;-76
2022/10/07 11:11:08;;;;;;;;;6.00;4.00;;;;;19.52;39.67;101832.16;5093587;27;45543;-69
2022/10/07 11:13:53;;;;;;;;;7.33;3.67;;;;;19.49;39.92;101819.47;5093415;27;45600;-79
2022/10/07 11:16:40;;;;;;;;;4.33;2.33;;;;;19.20;39.66;101772.31;5093336;27;45451;-76
2022/10/07 11:19:16;;;;;;;;;7.00;3.33;;;;;19.15;39.75;101758.72;5089810;27;45448;-72
2022/10/07 11:21:46;;;;;;;;;5.00;2.00;;;;;19.50;39.58;101814.94;5093789;27;45477;-75
2022/10/07 11:24:29;;;;;;;;;4.00;2.00;;;;;19.58;39.60;101806.88;5092071;27;45427;-65
2022/10/07 11:27:17;;;;;;;;;4.00;4.00;;;;;19.66;39.28;101806.00;5093043;27;45404;-77
2022/10/07 11:30:15;;;;;;;;;3.00;3.00;;;;;19.67;39.01;101798.81;5088831;27;45466;-65
2022/10/07 11:32:55;;;;;;;;;4.67;1.67;;;;;19.63;39.26;101791.53;5093357;27;45365;-70